Wetterdaten: Woche 02.07.18 - 08.07.18 (KW27)
Datum Zeit Temperatur Luftfeuchte Luftdruck Niederschlag Windrichtung Sonnenschein Solar Wind
02.07.2018 00:00 15,6 C 61 % 1011,3 hPa 0,0 l/m O-NO 0,00 h 0 W/m 7,4 km/h (2 Bft)
02.07.2018 01:00 14,9 C 63 % 1011,2 hPa 0,0 l/m NO 0,00 h 0 W/m 7,1 km/h (2 Bft)
02.07.2018 02:00 14,5 C 63 % 1010,8 hPa 0,0 l/m NO 0,00 h 0 W/m 7,8 km/h (2 Bft)
02.07.2018 03:00 13,4 C 68 % 1010,7 hPa 0,0 l/m NO 0,00 h 0 W/m 6,6 km/h (2 Bft)
02.07.2018 04:00 12,0 C 74 % 1010,6 hPa 0,0 l/m N-NO 0,00 h 0 W/m 7,2 km/h (2 Bft)
02.07.2018 05:00 11,4 C 78 % 1010,7 hPa 0,0 l/m N 0,08 h 13 W/m 5,4 km/h (1 Bft)
02.07.2018 06:00 11,0 C 81 % 1010,8 hPa 0,0 l/m N-NO 0,17 h 68 W/m 7,8 km/h (2 Bft)
02.07.2018 07:00 12,6 C 76 % 1011,0 hPa 0,0 l/m N-NO 0,67 h 195 W/m 12,1 km/h (2 Bft)
02.07.2018 08:00 14,8 C 69 % 1011,0 hPa 0,0 l/m NO 1,00 h 379 W/m 11,8 km/h (2 Bft)
02.07.2018 09:00 17,4 C 62 % 1011,2 hPa 0,0 l/m NO 0,75 h 427 W/m 13,0 km/h (3 Bft)
02.07.2018 10:00 19,8 C 51 % 1011,2 hPa 0,0 l/m O 0,92 h 604 W/m 16,8 km/h (3 Bft)
02.07.2018 11:00 21,6 C 48 % 1011,0 hPa 0,0 l/m O-NO 1,00 h 776 W/m 16,1 km/h (3 Bft)
02.07.2018 12:00 23,1 C 44 % 1011,0 hPa 0,0 l/m O 1,00 h 841 W/m 15,4 km/h (3 Bft)
02.07.2018 13:00 24,8 C 41 % 1010,9 hPa 0,0 l/m O-NO 1,00 h 859 W/m 14,8 km/h (3 Bft)
02.07.2018 14:00 25,7 C 42 % 1010,9 hPa 0,0 l/m O-NO 1,00 h 843 W/m 13,8 km/h (3 Bft)
02.07.2018 15:00 26,3 C 41 % 1010,9 hPa 0,0 l/m O-NO 1,00 h 764 W/m 14,2 km/h (3 Bft)
02.07.2018 16:00 26,5 C 41 % 1010,7 hPa 0,0 l/m O-NO 1,00 h 654 W/m 13,6 km/h (3 Bft)
02.07.2018 17:00 26,8 C 41 % 1010,5 hPa 0,0 l/m O-NO 1,00 h 520 W/m 15,0 km/h (3 Bft)
02.07.2018 18:00 26,3 C 43 % 1010,5 hPa 0,0 l/m O-NO 1,00 h 359 W/m 13,8 km/h (3 Bft)
02.07.2018 19:00 25,1 C 45 % 1010,6 hPa 0,0 l/m O 1,00 h 191 W/m 13,6 km/h (3 Bft)
02.07.2018 20:00 23,4 C 50 % 1010,8 hPa 0,0 l/m O-SO 0,00 h 49 W/m 7,3 km/h (2 Bft)
02.07.2018 21:00 21,4 C 57 % 1011,1 hPa 0,0 l/m O-SO 0,08 h 9 W/m 2,9 km/h (1 Bft)
02.07.2018 22:00 19,2 C 64 % 1011,9 hPa 0,0 l/m N 0,00 h 0 W/m 0,5 km/h (0 Bft)
02.07.2018 23:00 17,4 C 70 % 1012,1 hPa 0,0 l/m N 0,00 h 0 W/m 0,7 km/h (0 Bft)
03.07.2018 00:00 16,8 C 71 % 1011,9 hPa 0,0 l/m N 0,00 h 0 W/m 0,3 km/h (0 Bft)
03.07.2018 01:00 15,9 C 74 % 1011,8 hPa 0,0 l/m N 0,00 h 0 W/m 0,0 km/h (0 Bft)
03.07.2018 02:00 15,3 C 76 % 1011,6 hPa 0,0 l/m N 0,00 h 0 W/m 0,4 km/h (0 Bft)
03.07.2018 03:00 14,9 C 76 % 1011,8 hPa 0,0 l/m N 0,00 h 0 W/m 0,8 km/h (0 Bft)
03.07.2018 04:00 14,6 C 77 % 1011,9 hPa 0,0 l/m O-SO 0,00 h 0 W/m 0,9 km/h (0 Bft)
03.07.2018 05:00 14,1 C 77 % 1011,9 hPa 0,0 l/m O 0,08 h 11 W/m 4,8 km/h (1 Bft)
03.07.2018 06:00 14,3 C 76 % 1012,1 hPa 0,0 l/m N 0,08 h 69 W/m 1,6 km/h (1 Bft)
03.07.2018 07:00 16,0 C 71 % 1012,3 hPa 0,0 l/m N 0,58 h 165 W/m 3,2 km/h (1 Bft)
03.07.2018 08:00 17,6 C 63 % 1012,7 hPa 0,0 l/m O 0,42 h 287 W/m 5,5 km/h (1 Bft)
03.07.2018 09:00 20,2 C 61 % 1012,6 hPa 0,0 l/m O 0,58 h 363 W/m 2,5 km/h (1 Bft)
03.07.2018 10:00 21,8 C 58 % 1013,2 hPa 0,0 l/m SW 0,08 h 322 W/m 13,3 km/h (3 Bft)
03.07.2018 11:00 21,0 C 65 % 1014,0 hPa 0,0 l/m W-SW 0,17 h 292 W/m 18,4 km/h (3 Bft)
03.07.2018 12:00 20,0 C 74 % 1014,4 hPa 0,0 l/m W-SW 0,00 h 136 W/m 13,7 km/h (3 Bft)
03.07.2018 13:00 19,4 C 84 % 1014,4 hPa 0,0 l/m SW 0,00 h 307 W/m 13,8 km/h (3 Bft)
03.07.2018 14:00 19,8 C 84 % 1014,2 hPa 0,0 l/m SW 0,08 h 407 W/m 17,7 km/h (3 Bft)
03.07.2018 15:00 21,8 C 76 % 1013,7 hPa 0,0 l/m SW 1,00 h 782 W/m 13,0 km/h (3 Bft)
03.07.2018 16:00 22,6 C 72 % 1013,6 hPa 0,0 l/m S-SW 0,50 h 512 W/m 12,2 km/h (2 Bft)
03.07.2018 17:00 23,2 C 66 % 1013,5 hPa 0,0 l/m SW 0,25 h 298 W/m 11,8 km/h (2 Bft)
03.07.2018 18:00 22,3 C 71 % 1013,5 hPa 0,0 l/m S-SW 0,17 h 212 W/m 14,0 km/h (3 Bft)
03.07.2018 19:00 21,8 C 74 % 1013,4 hPa 0,0 l/m S-SW 0,08 h 135 W/m 11,6 km/h (2 Bft)
03.07.2018 20:00 20,7 C 77 % 1013,3 hPa 0,0 l/m SW 0,00 h 49 W/m 11,7 km/h (2 Bft)
03.07.2018 21:00 19,2 C 81 % 1013,1 hPa 0,0 l/m N 0,08 h 9 W/m 0,5 km/h (0 Bft)
03.07.2018 22:00 17,9 C 86 % 1013,4 hPa 0,0 l/m N 0,00 h 0 W/m 0,0 km/h (0 Bft)
03.07.2018 23:00 17,5 C 91 % 1013,4 hPa 0,0 l/m N 0,00 h 0 W/m 0,5 km/h (0 Bft)
04.07.2018 00:00 16,7 C 92 % 1013,6 hPa 0,0 l/m SW 0,00 h 0 W/m 0,8 km/h (0 Bft)
04.07.2018 01:00 16,5 C 94 % 1014,0 hPa 0,0 l/m N 0,00 h 0 W/m 0,0 km/h (0 Bft)
04.07.2018 02:00 16,6 C 94 % 1013,7 hPa 0,0 l/m N 0,00 h 0 W/m 0,0 km/h (0 Bft)
04.07.2018 03:00 16,3 C 95 % 1013,5 hPa 0,0 l/m N 0,00 h 0 W/m 0,0 km/h (0 Bft)
04.07.2018 04:00 16,2 C 97 % 1013,3 hPa 0,2 l/m N 0,00 h 0 W/m 0,0 km/h (0 Bft)
04.07.2018 05:00 16,2 C 97 % 1013,4 hPa 0,0 l/m SW 0,00 h 9 W/m 1,9 km/h (1 Bft)
04.07.2018 06:00 15,9 C 98 % 1013,5 hPa 0,0 l/m SW 0,00 h 46 W/m 2,3 km/h (1 Bft)
04.07.2018 07:00 17,0 C 97 % 1013,8 hPa 0,0 l/m SW 0,58 h 201 W/m 9,9 km/h (2 Bft)
04.07.2018 08:00 18,8 C 92 % 1013,8 hPa 0,0 l/m SW 0,50 h 239 W/m 7,7 km/h (2 Bft)
04.07.2018 09:00 18,9 C 91 % 1013,8 hPa 0,0 l/m SW 0,00 h 195 W/m 4,8 km/h (1 Bft)
04.07.2018 10:00 19,8 C 90 % 1014,1 hPa 0,0 l/m SW 0,00 h 197 W/m 8,4 km/h (2 Bft)
04.07.2018 11:00 20,6 C 91 % 1014,0 hPa 0,2 l/m SW 0,00 h 333 W/m 2,7 km/h (1 Bft)
04.07.2018 12:00 22,4 C 83 % 1014,0 hPa 0,0 l/m W-SW 0,50 h 509 W/m 9,8 km/h (2 Bft)
04.07.2018 13:00 23,7 C 70 % 1013,3 hPa 0,0 l/m W-NW 1,00 h 717 W/m 13,7 km/h (3 Bft)
04.07.2018 14:00 24,4 C 60 % 1013,7 hPa 0,0 l/m NW 0,42 h 524 W/m 7,6 km/h (2 Bft)
04.07.2018 15:00 24,0 C 65 % 1013,5 hPa 0,0 l/m S 0,92 h 486 W/m 14,1 km/h (3 Bft)
04.07.2018 16:00 23,8 C 69 % 1013,0 hPa 0,0 l/m SW 1,00 h 517 W/m 13,2 km/h (3 Bft)
04.07.2018 17:00 24,1 C 69 % 1012,3 hPa 0,0 l/m SW 0,83 h 392 W/m 7,8 km/h (2 Bft)
04.07.2018 18:00 24,6 C 66 % 1012,1 hPa 0,0 l/m SW 0,42 h 249 W/m 3,5 km/h (1 Bft)
04.07.2018 19:00 22,5 C 76 % 1011,8 hPa 0,0 l/m N 0,00 h 73 W/m 0,0 km/h (0 Bft)
04.07.2018 20:00 22,2 C 77 % 1011,4 hPa 0,0 l/m N 0,42 h 66 W/m 0,3 km/h (0 Bft)
04.07.2018 21:00 19,8 C 86 % 1011,8 hPa 0,0 l/m N 0,00 h 8 W/m 0,1 km/h (0 Bft)
04.07.2018 22:00 18,0 C 91 % 1012,0 hPa 0,0 l/m N 0,00 h 0 W/m 0,0 km/h (0 Bft)
04.07.2018 23:00 16,9 C 94 % 1011,6 hPa 0,0 l/m N 0,00 h 0 W/m 0,0 km/h (0 Bft)
05.07.2018 00:00 16,1 C 95 % 1011,1 hPa 0,0 l/m N 0,00 h 0 W/m 0,0 km/h (0 Bft)
05.07.2018 01:00 15,4 C 96 % 1010,9 hPa 0,0 l/m N 0,00 h 0 W/m 0,9 km/h (0 Bft)
05.07.2018 02:00 14,7 C 96 % 1011,0 hPa 0,0 l/m N 0,00 h 0 W/m 0,1 km/h (0 Bft)
05.07.2018 03:00 14,0 C 97 % 1010,8 hPa 0,0 l/m N 0,00 h 0 W/m 0,0 km/h (0 Bft)
05.07.2018 04:00 13,9 C 97 % 1010,7 hPa 0,0 l/m SW 0,00 h 0 W/m 1,1 km/h (0 Bft)
05.07.2018 05:00 13,2 C 97 % 1011,2 hPa 0,0 l/m SW 0,08 h 14 W/m 2,8 km/h (1 Bft)
05.07.2018 06:00 14,3 C 98 % 1011,6 hPa 0,2 l/m SW 0,50 h 82 W/m 1,3 km/h (1 Bft)
05.07.2018 07:00 15,5 C 96 % 1011,5 hPa 0,0 l/m SW 0,00 h 86 W/m 3,5 km/h (1 Bft)
05.07.2018 08:00 16,5 C 95 % 1011,4 hPa 0,0 l/m N 0,00 h 104 W/m 0,4 km/h (0 Bft)
05.07.2018 09:00 17,7 C 93 % 1011,6 hPa 0,0 l/m SW 0,00 h 133 W/m 6,8 km/h (2 Bft)
05.07.2018 10:00 17,7 C 91 % 1011,5 hPa 0,0 l/m W 0,00 h 156 W/m 5,0 km/h (1 Bft)
05.07.2018 11:00 18,5 C 87 % 1011,8 hPa 0,0 l/m W 0,00 h 268 W/m 4,0 km/h (1 Bft)
05.07.2018 12:00 17,8 C 91 % 1012,4 hPa 1,4 l/m W 0,00 h 153 W/m 6,8 km/h (2 Bft)
05.07.2018 13:00 17,9 C 95 % 1012,4 hPa 0,6 l/m W 0,00 h 157 W/m 3,6 km/h (1 Bft)
05.07.2018 14:00 17,9 C 96 % 1012,3 hPa 0,4 l/m W 0,00 h 210 W/m 6,5 km/h (2 Bft)
05.07.2018 15:00 18,4 C 94 % 1012,1 hPa 0,0 l/m SW 0,08 h 361 W/m 12,2 km/h (2 Bft)
05.07.2018 16:00 19,1 C 88 % 1012,0 hPa 0,0 l/m SW 0,00 h 298 W/m 14,0 km/h (3 Bft)
05.07.2018 17:00 18,8 C 85 % 1012,1 hPa 0,0 l/m W-SW 0,00 h 134 W/m 9,5 km/h (2 Bft)
05.07.2018 18:00 17,5 C 93 % 1012,1 hPa 0,8 l/m W 0,00 h 62 W/m 4,3 km/h (1 Bft)
05.07.2018 19:00 16,9 C 96 % 1012,3 hPa 0,0 l/m N 0,00 h 28 W/m 1,5 km/h (1 Bft)
05.07.2018 20:00 16,5 C 97 % 1012,7 hPa 0,2 l/m N 0,00 h 11 W/m 0,5 km/h (0 Bft)
05.07.2018 21:00 16,2 C 98 % 1013,0 hPa 0,0 l/m N 0,00 h 11 W/m 0,0 km/h (0 Bft)
05.07.2018 22:00 15,7 C 98 % 1013,7 hPa 0,0 l/m N 0,00 h 0 W/m 0,0 km/h (0 Bft)
05.07.2018 23:00 15,6 C 99 % 1014,0 hPa 0,0 l/m N 0,00 h 0 W/m 0,0 km/h (0 Bft)
06.07.2018 00:00 15,6 C 99 % 1014,0 hPa 0,0 l/m W 0,00 h 0 W/m 5,0 km/h (1 Bft)
06.07.2018 01:00 15,6 C 99 % 1014,0 hPa 0,0 l/m W-SW 0,00 h 0 W/m 5,4 km/h (1 Bft)
06.07.2018 02:00 15,0 C 99 % 1014,0 hPa 0,0 l/m W-SW 0,00 h 0 W/m 3,7 km/h (1 Bft)
06.07.2018 03:00 15,0 C 99 % 1014,1 hPa 0,2 l/m N 0,00 h 0 W/m 0,0 km/h (0 Bft)
06.07.2018 04:00 15,0 C 99 % 1013,9 hPa 0,0 l/m N 0,00 h 0 W/m 0,3 km/h (0 Bft)
06.07.2018 05:00 15,0 C 99 % 1013,9 hPa 0,0 l/m W-SW 0,00 h 6 W/m 1,1 km/h (0 Bft)
06.07.2018 06:00 15,0 C 99 % 1014,1 hPa 0,0 l/m N 0,00 h 20 W/m 1,6 km/h (1 Bft)
06.07.2018 07:00 15,2 C 99 % 1014,5 hPa 0,2 l/m W-SW 0,00 h 48 W/m 5,6 km/h (1 Bft)
06.07.2018 08:00 15,5 C 99 % 1015,0 hPa 0,2 l/m W-SW 0,00 h 77 W/m 7,1 km/h (2 Bft)
06.07.2018 09:00 15,8 C 98 % 1015,4 hPa 1,2 l/m W-SW 0,00 h 94 W/m 3,9 km/h (1 Bft)
06.07.2018 10:00 16,7 C 98 % 1015,5 hPa 0,2 l/m W-SW 0,00 h 278 W/m 4,4 km/h (1 Bft)
06.07.2018 11:00 17,2 C 96 % 1016,0 hPa 0,0 l/m W 0,00 h 197 W/m 8,2 km/h (2 Bft)
06.07.2018 12:00 17,6 C 95 % 1016,2 hPa 0,0 l/m W-NW 0,00 h 361 W/m 10,6 km/h (2 Bft)
06.07.2018 13:00 18,5 C 91 % 1016,5 hPa 0,0 l/m NW 0,50 h 490 W/m 9,1 km/h (2 Bft)
06.07.2018 14:00 20,2 C 82 % 1016,4 hPa 0,0 l/m NW 0,42 h 501 W/m 7,9 km/h (2 Bft)
06.07.2018 15:00 21,6 C 76 % 1016,4 hPa 0,0 l/m W-NW 0,92 h 719 W/m 12,5 km/h (3 Bft)
06.07.2018 16:00 21,5 C 77 % 1016,3 hPa 0,0 l/m W 0,67 h 469 W/m 14,4 km/h (3 Bft)
06.07.2018 17:00 17,2 C 87 % 1017,0 hPa 0,6 l/m W-NW 0,00 h 77 W/m 14,8 km/h (3 Bft)
06.07.2018 18:00 17,7 C 91 % 1017,2 hPa 0,0 l/m SW 0,83 h 327 W/m 5,0 km/h (1 Bft)
06.07.2018 19:00 18,3 C 88 % 1017,5 hPa 0,0 l/m S-SW 0,67 h 171 W/m 10,7 km/h (2 Bft)
06.07.2018 20:00 17,4 C 90 % 1017,7 hPa 0,0 l/m S-SW 0,75 h 66 W/m 3,7 km/h (1 Bft)
06.07.2018 21:00 16,7 C 92 % 1018,5 hPa 0,0 l/m SW 0,00 h 7 W/m 4,3 km/h (1 Bft)
06.07.2018 22:00 16,2 C 94 % 1019,3 hPa 0,4 l/m W 0,00 h 0 W/m 3,5 km/h (1 Bft)
06.07.2018 23:00 15,1 C 95 % 1019,7 hPa 0,0 l/m N 0,00 h 0 W/m 0,4 km/h (0 Bft)
07.07.2018 00:00 14,8 C 97 % 1019,8 hPa 0,2 l/m N 0,00 h 0 W/m 0,0 km/h (0 Bft)
07.07.2018 01:00 14,9 C 98 % 1019,8 hPa 0,2 l/m W-SW 0,00 h 0 W/m 2,1 km/h (1 Bft)
07.07.2018 02:00 14,5 C 98 % 1019,6 hPa 0,0 l/m N 0,00 h 0 W/m 0,0 km/h (0 Bft)
07.07.2018 03:00 13,8 C 99 % 1019,8 hPa 0,0 l/m N 0,00 h 0 W/m 0,0 km/h (0 Bft)
07.07.2018 04:00 13,6 C 99 % 1019,9 hPa 0,2 l/m N 0,00 h 0 W/m 0,0 km/h (0 Bft)
07.07.2018 05:00 13,9 C 99 % 1020,0 hPa 0,0 l/m W-SW 0,00 h 9 W/m 3,2 km/h (1 Bft)
07.07.2018 06:00 13,8 C 100 % 1020,2 hPa 0,0 l/m N 0,00 h 38 W/m 0,0 km/h (0 Bft)
07.07.2018 07:00 14,1 C 100 % 1020,3 hPa 0,0 l/m N 0,25 h 141 W/m 0,0 km/h (0 Bft)
07.07.2018 08:00 15,8 C 96 % 1020,5 hPa 0,0 l/m N 1,00 h 400 W/m 0,0 km/h (0 Bft)
07.07.2018 09:00 18,1 C 85 % 1020,5 hPa 0,0 l/m N 0,83 h 450 W/m 0,0 km/h (0 Bft)
07.07.2018 10:00 20,0 C 73 % 1020,3 hPa 0,0 l/m N 0,83 h 594 W/m 0,0 km/h (0 Bft)
07.07.2018 11:00 21,3 C 64 % 1020,1 hPa 0,0 l/m O 0,58 h 620 W/m 4,2 km/h (1 Bft)
07.07.2018 12:00 22,6 C 57 % 1019,9 hPa 0,0 l/m N 0,58 h 665 W/m 2,4 km/h (1 Bft)
07.07.2018 13:00 22,8 C 55 % 1019,7 hPa 0,0 l/m N 0,25 h 477 W/m 3,7 km/h (1 Bft)
07.07.2018 14:00 23,2 C 57 % 1019,4 hPa 0,0 l/m N 0,58 h 732 W/m 3,2 km/h (1 Bft)
07.07.2018 15:00 23,1 C 56 % 1019,0 hPa 0,0 l/m N 0,50 h 528 W/m 2,4 km/h (1 Bft)
07.07.2018 16:00 23,9 C 53 % 1018,8 hPa 0,0 l/m N 0,50 h 475 W/m 0,8 km/h (0 Bft)
07.07.2018 17:00 24,4 C 52 % 1018,5 hPa 0,0 l/m NO 0,67 h 445 W/m 4,4 km/h (1 Bft)
07.07.2018 18:00 24,2 C 51 % 1018,3 hPa 0,0 l/m N 0,67 h 298 W/m 4,3 km/h (1 Bft)
07.07.2018 19:00 21,9 C 64 % 1018,2 hPa 0,0 l/m N 0,33 h 99 W/m 0,0 km/h (0 Bft)
07.07.2018 20:00 20,6 C 73 % 1018,2 hPa 0,0 l/m N 0,17 h 53 W/m 0,0 km/h (0 Bft)
07.07.2018 21:00 18,5 C 80 % 1018,5 hPa 0,0 l/m N 0,08 h 8 W/m 0,0 km/h (0 Bft)
07.07.2018 22:00 16,7 C 85 % 1018,8 hPa 0,0 l/m N 0,00 h 0 W/m 0,0 km/h (0 Bft)
07.07.2018 23:00 15,8 C 89 % 1018,9 hPa 0,0 l/m N 0,00 h 0 W/m 0,0 km/h (0 Bft)
08.07.2018 00:00 16,0 C 90 % 1018,7 hPa 0,0 l/m N 0,00 h 0 W/m 0,0 km/h (0 Bft)
08.07.2018 01:00 16,2 C 90 % 1018,5 hPa 0,0 l/m N 0,00 h 0 W/m 0,0 km/h (0 Bft)
08.07.2018 02:00 16,3 C 91 % 1018,3 hPa 0,0 l/m N 0,00 h 0 W/m 0,0 km/h (0 Bft)
08.07.2018 03:00 16,0 C 91 % 1018,1 hPa 0,0 l/m N 0,00 h 0 W/m 0,0 km/h (0 Bft)
08.07.2018 04:00 14,7 C 93 % 1018,0 hPa 0,0 l/m N 0,00 h 0 W/m 0,0 km/h (0 Bft)
08.07.2018 05:00 13,8 C 95 % 1018,0 hPa 0,0 l/m N 0,08 h 10 W/m 0,0 km/h (0 Bft)
08.07.2018 06:00 13,7 C 97 % 1018,2 hPa 0,0 l/m N 0,00 h 50 W/m 0,0 km/h (0 Bft)
08.07.2018 07:00 14,7 C 96 % 1018,4 hPa 0,0 l/m N 0,00 h 110 W/m 0,0 km/h (0 Bft)
08.07.2018 08:00 16,2 C 93 % 1018,4 hPa 0,0 l/m N 0,00 h 191 W/m 0,9 km/h (0 Bft)
08.07.2018 09:00 18,3 C 83 % 1018,3 hPa 0,0 l/m N 0,17 h 276 W/m 0,0 km/h (0 Bft)
08.07.2018 10:00 20,3 C 75 % 1018,1 hPa 0,0 l/m NO 0,50 h 499 W/m 0,5 km/h (0 Bft)
08.07.2018 11:00 22,6 C 64 % 1018,0 hPa 0,0 l/m NO 1,00 h 803 W/m 5,5 km/h (1 Bft)
08.07.2018 12:00 23,2 C 61 % 1017,9 hPa 0,0 l/m N-NO 0,50 h 590 W/m 7,3 km/h (2 Bft)
08.07.2018 13:00 24,6 C 55 % 1017,6 hPa 0,0 l/m N-NO 0,75 h 818 W/m 11,4 km/h (2 Bft)
08.07.2018 14:00 25,0 C 53 % 1017,4 hPa 0,0 l/m N-NO 0,83 h 852 W/m 14,9 km/h (3 Bft)
08.07.2018 15:00 25,1 C 52 % 1017,3 hPa 0,0 l/m N-NO 0,42 h 540 W/m 13,0 km/h (3 Bft)
08.07.2018 16:00 25,7 C 49 % 1017,3 hPa 0,0 l/m N 0,67 h 532 W/m 14,1 km/h (3 Bft)
08.07.2018 17:00 25,8 C 48 % 1017,1 hPa 0,0 l/m N-NO 0,92 h 500 W/m 16,0 km/h (3 Bft)
08.07.2018 18:00 25,3 C 47 % 1017,1 hPa 0,0 l/m N-NO 1,00 h 372 W/m 16,9 km/h (3 Bft)
08.07.2018 19:00 24,1 C 48 % 1017,3 hPa 0,0 l/m N-NO 1,00 h 194 W/m 15,2 km/h (3 Bft)
08.07.2018 20:00 22,2 C 54 % 1017,4 hPa 0,0 l/m N-NO 0,08 h 46 W/m 9,4 km/h (2 Bft)
08.07.2018 21:00 19,3 C 66 % 1017,7 hPa 0,0 l/m N 0,00 h 9 W/m 0,3 km/h (0 Bft)
08.07.2018 22:00 17,2 C 73 % 1018,1 hPa 0,0 l/m N 0,00 h 0 W/m 0,0 km/h (0 Bft)
08.07.2018 23:00 15,9 C 75 % 1018,2 hPa 0,0 l/m N 0,00 h 0 W/m 0,0 km/h (0 Bft)
Min-Datum _ 02.07.18 02.07.18 02.07.18 - - - - 02.07.18
_ Min-Zeit 06:05 13:25 18:35 - - - - 01:05
Minimum _ 10,8 C 40 % 1010,3 hPa - - - - 0,0 km/h (0 Bft)
Max-Datum _ 02.07.18 07.07.18 07.07.18 05.07.18 - 08.07.18 08.07.18 03.07.18
_ Max-Zeit 17:35 05:15 09:05 12:25 - 13:45 13:10 11:20
Maximum _ 27,1 C 100 % 1020,7 hPa 1,4 l/m - 0,17 h 1162 W/m 27,4 km/h
W-SW (4 Bft)
Durchschnitt _ 18,5 C 79 % 1014,6 hPa #7,6 l/m SW #44:35 h 296 W/m 5,4 km/h (1 Bft)